Time;durP1;ratioP1;P1;durP2;ratioP2;P2;SDS_P1;SDS_P2;PMS_P1;PMS_P2;Temp;Humidity;BMP_temperature;BMP_pressure;BME280_temperature;BME280_humidity;BME280_pressure;Samples;Min_cycle;Max_cycle;Signal;HPM_P1;HPM_P2
2022/10/21 00:00:35;;;;;;;1.27;1.27;;;;;;;;;;5001498;28;20760;-55
2022/10/21 00:03:01;;;;;;;1.30;1.30;;;;;;;;;;4999286;28;20318;-55
2022/10/21 00:05:27;;;;;;;1.10;1.10;;;;;;;;;;4995743;28;20934;-55
2022/10/21 00:07:53;;;;;;;1.10;1.10;;;;;;;;;;4997272;28;20244;-55
2022/10/21 00:10:19;;;;;;;1.20;1.20;;;;;;;;;;4999976;28;20230;-55
2022/10/21 00:12:45;;;;;;;1.40;1.40;;;;;;;;;;4992889;28;20330;-55
2022/10/21 00:15:11;;;;;;;1.20;1.20;;;;;;;;;;4973509;28;20232;-55
2022/10/21 00:17:37;;;;;;;0.90;0.90;;;;;;;;;;4989649;28;20354;-55
2022/10/21 00:20:07;;;;;;;1.20;1.20;;;;;;;;;;4998226;28;20225;-54
2022/10/21 00:22:33;;;;;;;1.10;1.10;;;;;;;;;;4999647;28;20958;-55
2022/10/21 00:24:59;;;;;;;1.00;1.00;;;;;;;;;;4992435;28;20337;-54
2022/10/21 00:27:25;;;;;;;1.50;1.50;;;;;;;;;;4990861;28;20274;-54
2022/10/21 00:29:51;;;;;;;1.00;1.00;;;;;;;;;;4990791;28;20253;-55
2022/10/21 00:32:17;;;;;;;1.20;1.20;;;;;;;;;;4988837;28;20605;-55
2022/10/21 00:34:43;;;;;;;1.40;1.40;;;;;;;;;;4985382;28;20820;-54
2022/10/21 00:37:09;;;;;;;1.20;1.20;;;;;;;;;;4992816;28;20225;-56
2022/10/21 00:39:35;;;;;;;1.10;1.10;;;;;;;;;;4993195;28;20251;-56
2022/10/21 00:42:01;;;;;;;1.20;1.20;;;;;;;;;;4996192;28;20259;-55
2022/10/21 00:44:27;;;;;;;1.10;1.10;;;;;;;;;;4990569;28;20228;-55
2022/10/21 00:46:54;;;;;;;1.00;1.00;;;;;;;;;;4997360;28;20221;-54
2022/10/21 00:49:39;;;;;;;1.10;1.10;;;;;;;;;;4959307;28;20312;-55
2022/10/21 00:52:06;;;;;;;1.30;1.30;;;;;;;;;;4987390;28;20594;-55
2022/10/21 00:54:32;;;;;;;1.20;1.20;;;;;;;;;;4980230;28;20237;-55
2022/10/21 00:56:58;;;;;;;1.10;1.10;;;;;;;;;;4992918;28;20733;-54
2022/10/21 00:59:24;;;;;;;1.10;1.10;;;;;;;;;;4994135;28;20715;-55
2022/10/21 01:01:50;;;;;;;1.40;1.40;;;;;;;;;;4968439;28;20227;-54
2022/10/21 01:04:16;;;;;;;1.20;1.20;;;;;;;;;;4992452;28;20224;-54
2022/10/21 01:06:42;;;;;;;1.10;1.10;;;;;;;;;;5002585;28;20651;-54
2022/10/21 01:09:08;;;;;;;0.90;0.90;;;;;;;;;;4981952;28;20316;-54
2022/10/21 01:11:44;;;;;;;0.97;0.97;;;;;;;;;;4994509;28;20320;-54
2022/10/21 01:14:24;;;;;;;1.30;1.30;;;;;;;;;;4998002;28;20236;-55
2022/10/21 01:16:56;;;;;;;1.20;1.20;;;;;;;;;;4998708;28;20317;-54
2022/10/21 01:19:34;;;;;;;1.10;1.10;;;;;;;;;;4967893;28;20237;-54
2022/10/21 01:22:13;;;;;;;1.13;1.13;;;;;;;;;;5003295;28;20245;-54
2022/10/21 01:24:45;;;;;;;1.00;1.00;;;;;;;;;;4987722;28;20286;-54
2022/10/21 01:27:13;;;;;;;1.13;1.13;;;;;;;;;;5000329;28;20974;-54
2022/10/21 01:29:47;;;;;;;1.20;1.20;;;;;;;;;;4977845;28;20252;-55
2022/10/21 01:32:19;;;;;;;1.10;1.10;;;;;;;;;;5005198;28;20699;-54
2022/10/21 01:34:57;;;;;;;1.17;1.17;;;;;;;;;;4992498;28;20248;-54
2022/10/21 01:37:25;;;;;;;1.17;1.17;;;;;;;;;;4975181;28;20268;-54
2022/10/21 01:39:55;;;;;;;1.00;1.00;;;;;;;;;;4972532;28;20250;-55
2022/10/21 01:42:28;;;;;;;1.00;1.00;;;;;;;;;;4966959;28;20229;-54
2022/10/21 01:45:02;;;;;;;1.10;1.10;;;;;;;;;;4994829;28;20244;-54
2022/10/21 01:47:28;;;;;;;1.00;1.00;;;;;;;;;;4969079;28;20288;-54
2022/10/21 01:49:55;;;;;;;1.43;1.43;;;;;;;;;;5001572;28;20311;-55
2022/10/21 01:52:21;;;;;;;1.07;1.07;;;;;;;;;;4980501;28;20227;-54
2022/10/21 01:54:52;;;;;;;1.00;1.00;;;;;;;;;;5002099;28;20230;-54
2022/10/21 01:57:19;;;;;;;1.00;1.00;;;;;;;;;;4978130;28;20231;-55
2022/10/21 01:59:45;;;;;;;1.00;1.00;;;;;;;;;;4997088;28;20233;-54
2022/10/21 02:02:11;;;;;;;1.10;1.10;;;;;;;;;;4989866;28;20272;-56
2022/10/21 02:04:38;;;;;;;1.10;1.10;;;;;;;;;;4978972;28;20301;-54
2022/10/21 02:07:04;;;;;;;1.10;1.10;;;;;;;;;;4974595;28;21038;-54
2022/10/21 02:09:30;;;;;;;1.00;1.00;;;;;;;;;;4990237;28;20240;-55
2022/10/21 02:11:57;;;;;;;1.20;1.20;;;;;;;;;;4992060;28;20219;-55
2022/10/21 02:14:23;;;;;;;1.00;1.00;;;;;;;;;;4967857;28;20267;-55
2022/10/21 02:16:49;;;;;;;1.00;1.00;;;;;;;;;;4979005;28;20343;-54
2022/10/21 02:19:16;;;;;;;1.10;1.10;;;;;;;;;;4968651;28;20610;-55
2022/10/21 02:21:42;;;;;;;1.23;1.23;;;;;;;;;;4990014;28;20392;-54
2022/10/21 02:24:28;;;;;;;1.10;1.10;;;;;;;;;;4984698;28;20654;-54
2022/10/21 02:26:54;;;;;;;1.10;1.10;;;;;;;;;;4989130;28;20228;-54
2022/10/21 02:29:21;;;;;;;0.90;0.90;;;;;;;;;;4978165;28;20683;-55
2022/10/21 02:31:57;;;;;;;1.10;1.10;;;;;;;;;;4995226;28;20794;-54
2022/10/21 02:35:01;;;;;;;1.00;1.00;;;;;;;;;;4985987;28;20225;-55
2022/10/21 02:37:36;;;;;;;0.90;0.90;;;;;;;;;;4916089;28;20228;-54
2022/10/21 02:40:05;;;;;;;0.90;0.90;;;;;;;;;;4898273;28;20606;-55
2022/10/21 02:42:32;;;;;;;1.20;1.20;;;;;;;;;;4942400;28;20245;-55
2022/10/21 02:44:59;;;;;;;1.10;1.10;;;;;;;;;;4974143;28;20689;-54
2022/10/21 02:47:25;;;;;;;1.00;1.00;;;;;;;;;;4983751;28;20279;-55
2022/10/21 02:49:51;;;;;;;0.90;0.90;;;;;;;;;;4960424;28;20675;-54
2022/10/21 02:52:17;;;;;;;1.20;1.20;;;;;;;;;;4978600;28;20303;-55
2022/10/21 02:54:43;;;;;;;1.00;1.00;;;;;;;;;;4977873;28;20255;-54
2022/10/21 02:57:09;;;;;;;1.00;1.00;;;;;;;;;;4975685;28;20225;-55
2022/10/21 02:59:35;;;;;;;1.00;1.00;;;;;;;;;;4977617;28;20229;-54
2022/10/21 03:02:01;;;;;;;1.13;1.13;;;;;;;;;;4979334;28;20232;-54
2022/10/21 03:04:27;;;;;;;1.00;1.00;;;;;;;;;;4972270;28;20225;-55
2022/10/21 03:06:53;;;;;;;1.10;1.10;;;;;;;;;;4986433;28;20240;-54
2022/10/21 03:09:19;;;;;;;1.00;1.00;;;;;;;;;;4989319;28;20304;-54
2022/10/21 03:11:45;;;;;;;1.10;1.10;;;;;;;;;;4997536;28;20328;-54
2022/10/21 03:14:10;;;;;;;1.40;1.40;;;;;;;;;;4997679;28;20225;-55
2022/10/21 03:16:36;;;;;;;1.20;1.20;;;;;;;;;;4998907;28;20233;-55
2022/10/21 03:19:02;;;;;;;1.20;1.20;;;;;;;;;;5001191;28;20221;-54
2022/10/21 03:21:28;;;;;;;1.20;1.20;;;;;;;;;;4999332;28;20229;-55
2022/10/21 03:23:54;;;;;;;0.90;0.90;;;;;;;;;;5000211;28;20226;-55
2022/10/21 03:26:20;;;;;;;0.90;0.90;;;;;;;;;;4987936;28;20216;-55
2022/10/21 03:28:46;;;;;;;1.13;1.13;;;;;;;;;;4999946;28;20287;-55
2022/10/21 03:31:12;;;;;;;1.07;1.07;;;;;;;;;;4995679;28;20240;-55
2022/10/21 03:33:38;;;;;;;1.20;1.20;;;;;;;;;;5000429;28;20241;-54
2022/10/21 03:36:04;;;;;;;1.10;1.10;;;;;;;;;;5000081;28;20300;-55
2022/10/21 03:38:30;;;;;;;1.20;1.20;;;;;;;;;;4992921;28;20232;-54
2022/10/21 03:40:56;;;;;;;1.00;1.00;;;;;;;;;;4981227;28;20224;-56
2022/10/21 03:43:22;;;;;;;1.03;1.03;;;;;;;;;;4983024;28;20221;-55
2022/10/21 03:45:48;;;;;;;1.00;1.00;;;;;;;;;;4966966;28;20245;-55
2022/10/21 03:48:14;;;;;;;1.00;1.00;;;;;;;;;;4980068;28;20229;-55
2022/10/21 03:50:40;;;;;;;1.00;1.00;;;;;;;;;;4988552;28;20235;-55
2022/10/21 03:53:06;;;;;;;1.10;1.10;;;;;;;;;;4987831;28;20221;-54
2022/10/21 03:55:32;;;;;;;1.10;1.10;;;;;;;;;;4986409;28;20232;-56
2022/10/21 03:57:58;;;;;;;1.10;1.10;;;;;;;;;;4981531;28;20539;-55
2022/10/21 04:00:24;;;;;;;1.00;1.00;;;;;;;;;;4972262;28;20279;-54
2022/10/21 04:02:50;;;;;;;1.20;1.20;;;;;;;;;;4973196;28;20659;-54
2022/10/21 04:05:16;;;;;;;1.13;1.13;;;;;;;;;;4987504;28;20230;-56
2022/10/21 04:07:42;;;;;;;1.00;1.00;;;;;;;;;;4990782;28;20245;-55
2022/10/21 04:10:08;;;;;;;0.90;0.90;;;;;;;;;;4986486;28;20241;-55
2022/10/21 04:12:34;;;;;;;1.00;1.00;;;;;;;;;;4980423;28;20229;-55
2022/10/21 04:15:00;;;;;;;0.97;0.97;;;;;;;;;;4965189;28;20249;-55
2022/10/21 04:17:26;;;;;;;1.10;1.10;;;;;;;;;;4955546;28;20759;-54
2022/10/21 04:19:52;;;;;;;1.00;1.00;;;;;;;;;;4967454;28;20233;-54
2022/10/21 04:22:18;;;;;;;1.20;1.20;;;;;;;;;;4977286;28;20233;-54
2022/10/21 04:24:44;;;;;;;0.90;0.90;;;;;;;;;;4973641;28;20225;-56
2022/10/21 04:27:10;;;;;;;1.10;1.10;;;;;;;;;;4964773;28;20306;-55
2022/10/21 04:29:35;;;;;;;1.03;1.03;;;;;;;;;;4961733;28;20239;-55
2022/10/21 04:32:01;;;;;;;1.13;1.13;;;;;;;;;;4945899;28;20229;-54
2022/10/21 04:34:27;;;;;;;1.10;1.10;;;;;;;;;;4972945;28;20353;-56
2022/10/21 04:36:53;;;;;;;1.00;1.00;;;;;;;;;;4972047;28;20705;-55
2022/10/21 04:39:19;;;;;;;1.20;1.20;;;;;;;;;;4965820;28;20234;-54
2022/10/21 04:41:47;;;;;;;1.20;1.20;;;;;;;;;;4988353;28;20315;-54
2022/10/21 04:44:13;;;;;;;1.30;1.30;;;;;;;;;;4984562;28;20352;-54
2022/10/21 04:46:39;;;;;;;1.10;1.10;;;;;;;;;;4979658;28;20855;-55
2022/10/21 04:49:05;;;;;;;1.13;1.13;;;;;;;;;;4968208;28;20227;-55
2022/10/21 04:51:31;;;;;;;1.07;1.07;;;;;;;;;;4981398;28;20740;-54
2022/10/21 04:53:57;;;;;;;1.00;1.00;;;;;;;;;;4987277;28;20232;-54
2022/10/21 04:56:23;;;;;;;1.00;1.00;;;;;;;;;;4977677;28;20225;-55
2022/10/21 04:58:49;;;;;;;1.00;1.00;;;;;;;;;;4968098;28;20233;-54
2022/10/21 05:01:15;;;;;;;0.97;0.97;;;;;;;;;;4958411;28;20630;-55
2022/10/21 05:03:41;;;;;;;1.20;1.20;;;;;;;;;;4955987;28;20704;-54
2022/10/21 05:06:07;;;;;;;1.30;1.30;;;;;;;;;;4966195;28;20680;-55
2022/10/21 05:08:33;;;;;;;1.10;1.10;;;;;;;;;;4983647;28;20245;-55
2022/10/21 05:10:59;;;;;;;1.43;1.43;;;;;;;;;;4978827;28;20229;-54
2022/10/21 05:13:25;;;;;;;1.43;1.43;;;;;;;;;;4983839;28;21035;-54
2022/10/21 05:15:51;;;;;;;1.40;1.40;;;;;;;;;;4988882;28;21019;-54
2022/10/21 05:18:17;;;;;;;1.20;1.20;;;;;;;;;;4978876;28;20224;-58
2022/10/21 05:20:48;;;;;;;1.10;1.10;;;;;;;;;;4978022;28;20473;-54
2022/10/21 05:23:14;;;;;;;1.30;1.30;;;;;;;;;;4985099;28;20318;-55
2022/10/21 05:25:40;;;;;;;1.03;1.03;;;;;;;;;;4991597;28;20316;-56
2022/10/21 05:28:06;;;;;;;1.50;1.50;;;;;;;;;;4977284;28;20312;-55
2022/10/21 05:30:32;;;;;;;1.40;1.40;;;;;;;;;;4977038;28;20355;-55
2022/10/21 05:32:58;;;;;;;1.30;1.30;;;;;;;;;;4988859;28;20671;-55
2022/10/21 05:35:24;;;;;;;1.30;1.30;;;;;;;;;;5002464;28;21015;-55
2022/10/21 05:37:50;;;;;;;1.10;1.10;;;;;;;;;;4995287;28;20211;-55
2022/10/21 05:40:17;;;;;;;1.10;1.10;;;;;;;;;;5003874;28;20381;-55
2022/10/21 05:42:43;;;;;;;1.13;1.13;;;;;;;;;;5005815;28;20232;-55
2022/10/21 05:45:09;;;;;;;1.30;1.30;;;;;;;;;;5006382;28;20626;-55
2022/10/21 05:47:35;;;;;;;1.00;1.00;;;;;;;;;;5005913;28;20687;-55
2022/10/21 05:50:01;;;;;;;1.40;1.40;;;;;;;;;;5003258;28;20288;-55
2022/10/21 05:52:27;;;;;;;1.10;1.10;;;;;;;;;;4997914;28;20217;-55
2022/10/21 05:54:53;;;;;;;1.10;1.10;;;;;;;;;;5003168;28;20240;-55
2022/10/21 05:57:19;;;;;;;1.10;1.10;;;;;;;;;;5005693;28;20448;-55
2022/10/21 05:59:45;;;;;;;1.30;1.30;;;;;;;;;;5000722;28;20293;-55
2022/10/21 06:02:11;;;;;;;1.10;1.10;;;;;;;;;;5004290;28;20320;-55
2022/10/21 06:04:37;;;;;;;1.30;1.30;;;;;;;;;;5000595;28;20248;-54
2022/10/21 06:07:02;;;;;;;1.10;1.10;;;;;;;;;;4998607;28;20252;-55
2022/10/21 06:09:28;;;;;;;1.30;1.30;;;;;;;;;;4991704;28;20238;-56
2022/10/21 06:11:56;;;;;;;1.30;1.30;;;;;;;;;;4997120;28;20232;-55
2022/10/21 06:14:22;;;;;;;1.10;1.10;;;;;;;;;;4970995;28;20352;-55
2022/10/21 06:16:48;;;;;;;1.13;1.13;;;;;;;;;;5000496;28;20643;-55
2022/10/21 06:19:14;;;;;;;1.10;1.10;;;;;;;;;;4993635;28;20264;-53
2022/10/21 06:21:40;;;;;;;1.10;1.10;;;;;;;;;;4991456;28;20226;-54
2022/10/21 06:24:06;;;;;;;1.20;1.20;;;;;;;;;;4989808;28;20615;-53
2022/10/21 06:26:32;;;;;;;1.10;1.10;;;;;;;;;;4989868;28;21022;-54
2022/10/21 06:28:58;;;;;;;1.17;1.17;;;;;;;;;;4974483;28;20685;-54
2022/10/21 06:31:24;;;;;;;1.00;1.00;;;;;;;;;;4975329;28;20226;-54
2022/10/21 06:33:50;;;;;;;1.00;1.00;;;;;;;;;;4999691;28;20222;-54
2022/10/21 06:36:16;;;;;;;0.93;0.93;;;;;;;;;;4989287;28;20317;-54
2022/10/21 06:38:42;;;;;;;1.10;1.10;;;;;;;;;;4989486;28;20227;-52
2022/10/21 06:41:09;;;;;;;1.10;1.10;;;;;;;;;;4991636;28;20221;-53
2022/10/21 06:43:35;;;;;;;1.10;1.10;;;;;;;;;;4998207;28;20304;-52
2022/10/21 06:46:01;;;;;;;1.13;1.13;;;;;;;;;;4992552;28;20247;-53
2022/10/21 06:48:27;;;;;;;1.00;1.00;;;;;;;;;;4998996;28;20838;-53
2022/10/21 06:50:57;;;;;;;1.20;1.20;;;;;;;;;;5002302;28;20232;-52
2022/10/21 06:53:23;;;;;;;1.17;1.17;;;;;;;;;;4999641;28;20739;-53
2022/10/21 06:55:49;;;;;;;1.07;1.07;;;;;;;;;;4999192;28;20228;-53
2022/10/21 06:58:15;;;;;;;1.10;1.10;;;;;;;;;;4999735;28;20210;-54
2022/10/21 07:00:41;;;;;;;0.90;0.90;;;;;;;;;;4997402;28;20226;-53
2022/10/21 07:03:07;;;;;;;0.90;0.90;;;;;;;;;;4999940;28;20304;-53
2022/10/21 07:05:33;;;;;;;1.10;1.10;;;;;;;;;;5000589;28;20228;-53
2022/10/21 07:07:59;;;;;;;1.07;1.07;;;;;;;;;;4996487;28;20599;-53
2022/10/21 07:10:25;;;;;;;1.00;1.00;;;;;;;;;;4990874;28;20678;-54
2022/10/21 07:12:50;;;;;;;1.00;1.00;;;;;;;;;;4997881;28;20269;-54
2022/10/21 07:15:16;;;;;;;0.90;0.90;;;;;;;;;;4998947;28;20225;-53
2022/10/21 07:17:42;;;;;;;1.20;1.20;;;;;;;;;;4997255;28;20226;-53
2022/10/21 07:20:08;;;;;;;1.13;1.13;;;;;;;;;;4996928;28;20221;-53
2022/10/21 07:22:34;;;;;;;1.20;1.20;;;;;;;;;;4995140;28;20326;-53
2022/10/21 07:25:00;;;;;;;1.10;1.10;;;;;;;;;;4992351;28;20217;-53
2022/10/21 07:27:26;;;;;;;1.00;1.00;;;;;;;;;;4986507;28;20237;-53
2022/10/21 07:29:52;;;;;;;1.07;1.07;;;;;;;;;;4991680;28;20231;-54
2022/10/21 07:32:18;;;;;;;1.10;1.10;;;;;;;;;;4990358;28;20225;-54
2022/10/21 07:34:44;;;;;;;1.30;1.30;;;;;;;;;;4998066;28;20347;-53
2022/10/21 07:37:10;;;;;;;1.00;1.00;;;;;;;;;;4990553;28;20300;-54
2022/10/21 07:39:36;;;;;;;1.10;1.10;;;;;;;;;;4977960;28;20320;-52
2022/10/21 07:42:02;;;;;;;1.00;1.00;;;;;;;;;;4968116;28;20270;-54
2022/10/21 07:44:28;;;;;;;1.00;1.00;;;;;;;;;;4993007;28;20237;-53
2022/10/21 07:46:54;;;;;;;1.00;1.00;;;;;;;;;;4986294;28;20216;-53
2022/10/21 07:49:20;;;;;;;1.10;1.10;;;;;;;;;;4996834;28;20722;-53
2022/10/21 07:51:48;;;;;;;1.00;1.00;;;;;;;;;;4989322;28;20232;-54
2022/10/21 07:54:14;;;;;;;1.00;1.00;;;;;;;;;;4990761;28;20349;-53
2022/10/21 07:56:41;;;;;;;0.90;0.90;;;;;;;;;;4983914;28;20229;-53
2022/10/21 07:59:08;;;;;;;1.00;1.00;;;;;;;;;;4981132;28;20213;-54
2022/10/21 08:01:35;;;;;;;1.10;1.10;;;;;;;;;;4988580;28;20256;-53
2022/10/21 08:04:01;;;;;;;0.80;0.80;;;;;;;;;;4983487;28;20227;-54
2022/10/21 08:06:27;;;;;;;1.00;1.00;;;;;;;;;;4977937;28;20630;-53
2022/10/21 08:08:56;;;;;;;1.10;1.10;;;;;;;;;;4978914;28;20227;-53
2022/10/21 08:11:22;;;;;;;1.10;1.10;;;;;;;;;;4991668;28;20708;-53
2022/10/21 08:13:48;;;;;;;0.97;0.97;;;;;;;;;;5000827;28;20758;-53
2022/10/21 08:16:14;;;;;;;0.90;0.90;;;;;;;;;;4984555;28;20542;-54
2022/10/21 08:18:40;;;;;;;1.00;1.00;;;;;;;;;;4993710;28;20253;-53
2022/10/21 08:21:06;;;;;;;1.00;1.00;;;;;;;;;;5000916;28;20224;-53
2022/10/21 08:23:32;;;;;;;1.00;1.00;;;;;;;;;;4993541;28;20228;-53
2022/10/21 08:25:59;;;;;;;1.00;1.00;;;;;;;;;;4981733;28;20293;-53
2022/10/21 08:28:25;;;;;;;0.90;0.90;;;;;;;;;;4986122;28;20224;-53
2022/10/21 08:30:51;;;;;;;1.10;1.10;;;;;;;;;;4985666;28;20606;-54
2022/10/21 08:33:17;;;;;;;1.10;1.10;;;;;;;;;;5001568;28;20229;-53
2022/10/21 08:35:43;;;;;;;0.97;0.97;;;;;;;;;;4997130;28;20762;-53
2022/10/21 08:38:09;;;;;;;1.20;1.20;;;;;;;;;;5001040;28;20236;-54
2022/10/21 08:40:37;;;;;;;1.20;1.20;;;;;;;;;;5000440;28;20232;-53
2022/10/21 08:43:10;;;;;;;1.00;1.00;;;;;;;;;;4983465;28;20229;-52
2022/10/21 08:45:38;;;;;;;1.00;1.00;;;;;;;;;;4992285;28;20331;-53
2022/10/21 08:48:05;;;;;;;0.90;0.90;;;;;;;;;;4990775;28;20757;-53
2022/10/21 08:50:35;;;;;;;1.00;1.00;;;;;;;;;;4992729;28;20279;-53
2022/10/21 08:53:01;;;;;;;1.17;1.17;;;;;;;;;;5000488;28;20272;-54
2022/10/21 08:55:30;;;;;;;0.90;0.90;;;;;;;;;;4990681;28;20225;-53
2022/10/21 08:57:56;;;;;;;1.10;1.10;;;;;;;;;;4999562;28;21317;-53
2022/10/21 09:00:41;;;;;;;0.80;0.80;;;;;;;;;;4994393;28;20673;-53
2022/10/21 09:03:27;;;;;;;1.13;1.13;;;;;;;;;;5001028;28;20688;-53
2022/10/21 09:06:03;;;;;;;0.90;0.90;;;;;;;;;;4992988;28;20609;-53
2022/10/21 09:08:32;;;;;;;0.90;0.90;;;;;;;;;;4979091;28;20284;-53
2022/10/21 09:11:02;;;;;;;0.80;0.80;;;;;;;;;;4966180;28;20614;-53
2022/10/21 09:13:34;;;;;;;1.10;1.10;;;;;;;;;;4990502;28;20225;-53
2022/10/21 09:16:00;;;;;;;0.87;0.87;;;;;;;;;;4994391;28;20226;-53
2022/10/21 09:18:32;;;;;;;1.00;1.00;;;;;;;;;;4992578;28;20214;-53
2022/10/21 09:21:17;;;;;;;0.90;0.90;;;;;;;;;;4986550;28;20717;-53
2022/10/21 09:23:53;;;;;;;0.90;0.90;;;;;;;;;;4998570;28;20275;-54
2022/10/21 09:26:21;;;;;;;1.10;1.10;;;;;;;;;;4996304;28;20267;-53
2022/10/21 09:28:47;;;;;;;0.90;0.90;;;;;;;;;;4987633;28;20233;-54
2022/10/21 09:31:17;;;;;;;0.80;0.80;;;;;;;;;;4983922;28;20577;-53
2022/10/21 09:33:45;;;;;;;0.87;0.87;;;;;;;;;;4967500;28;20216;-53
2022/10/21 09:36:12;;;;;;;0.90;0.90;;;;;;;;;;4973697;28;20817;-53
2022/10/21 09:38:37;;;;;;;0.80;0.80;;;;;;;;;;4980175;28;20393;-54
2022/10/21 09:41:03;;;;;;;1.00;1.00;;;;;;;;;;4995720;28;20224;-55
2022/10/21 09:43:30;;;;;;;0.83;0.83;;;;;;;;;;4967312;28;20255;-54
2022/10/21 09:45:56;;;;;;;1.00;1.00;;;;;;;;;;4995001;28;20225;-53
2022/10/21 09:48:21;;;;;;;0.90;0.90;;;;;;;;;;4970326;28;20603;-54
2022/10/21 09:50:51;;;;;;;0.90;0.90;;;;;;;;;;4995502;28;20259;-53
2022/10/21 09:53:19;;;;;;;0.90;0.90;;;;;;;;;;4967854;28;20237;-54
2022/10/21 09:55:45;;;;;;;0.80;0.80;;;;;;;;;;4975570;28;20284;-54
2022/10/21 09:58:30;;;;;;;0.90;0.90;;;;;;;;;;4992750;28;20229;-53
2022/10/21 10:00:57;;;;;;;0.83;0.83;;;;;;;;;;5001349;28;20286;-53
2022/10/21 10:03:30;;;;;;;0.80;0.80;;;;;;;;;;4984700;28;20223;-54
2022/10/21 10:05:56;;;;;;;0.90;0.90;;;;;;;;;;4967800;28;20245;-54
2022/10/21 10:08:27;;;;;;;1.10;1.10;;;;;;;;;;4994188;28;20651;-53
2022/10/21 10:11:13;;;;;;;1.00;1.00;;;;;;;;;;4991818;28;20280;-53
2022/10/21 10:13:46;;;;;;;1.00;1.00;;;;;;;;;;4987734;28;20590;-54
2022/10/21 10:16:13;;;;;;;1.00;1.00;;;;;;;;;;4990923;28;20229;-54
2022/10/21 10:18:38;;;;;;;1.10;1.10;;;;;;;;;;5002942;28;20244;-53
2022/10/21 10:21:06;;;;;;;1.40;1.40;;;;;;;;;;5003396;28;20217;-54
2022/10/21 10:23:40;;;;;;;1.00;1.00;;;;;;;;;;4979480;28;20229;-53
2022/10/21 10:26:06;;;;;;;0.80;0.80;;;;;;;;;;4974206;28;20312;-54
2022/10/21 10:28:32;;;;;;;0.90;0.90;;;;;;;;;;4994255;28;20284;-55
2022/10/21 10:30:58;;;;;;;0.90;0.90;;;;;;;;;;5004865;28;20293;-53
2022/10/21 10:33:26;;;;;;;1.00;1.00;;;;;;;;;;5002770;28;20225;-54
2022/10/21 10:35:52;;;;;;;0.87;0.87;;;;;;;;;;4999059;28;20469;-54
2022/10/21 10:38:24;;;;;;;1.10;1.10;;;;;;;;;;4997700;28;20236;-54
2022/10/21 10:40:50;;;;;;;0.80;0.80;;;;;;;;;;4995784;28;20229;-54
2022/10/21 10:43:29;;;;;;;0.90;0.90;;;;;;;;;;5003634;28;20232;-54
2022/10/21 10:45:56;;;;;;;0.80;0.80;;;;;;;;;;4984609;28;20259;-54
2022/10/21 10:48:42;;;;;;;0.90;0.90;;;;;;;;;;4979887;28;20257;-54
2022/10/21 10:51:23;;;;;;;1.00;1.00;;;;;;;;;;4995590;28;20747;-54
2022/10/21 10:54:09;;;;;;;0.90;0.90;;;;;;;;;;4991806;28;20217;-54
2022/10/21 10:56:37;;;;;;;0.80;0.80;;;;;;;;;;4965322;28;20315;-53
2022/10/21 10:59:14;;;;;;;0.70;0.70;;;;;;;;;;4962906;28;20229;-54
2022/10/21 11:01:51;;;;;;;0.60;0.60;;;;;;;;;;4933568;28;20255;-54
2022/10/21 11:04:22;;;;;;;0.70;0.70;;;;;;;;;;5002309;28;20244;-55
2022/10/21 11:06:50;;;;;;;0.80;0.80;;;;;;;;;;4982445;28;20735;-54
2022/10/21 11:09:17;;;;;;;0.70;0.70;;;;;;;;;;4990285;28;20232;-54
2022/10/21 11:11:43;;;;;;;1.00;1.00;;;;;;;;;;4980573;28;20226;-54
2022/10/21 11:14:13;;;;;;;0.80;0.80;;;;;;;;;;4986052;28;20214;-53
2022/10/21 11:16:42;;;;;;;0.80;0.80;;;;;;;;;;4971883;28;20228;-55
2022/10/21 11:19:08;;;;;;;0.87;0.87;;;;;;;;;;4949834;28;20692;-54
2022/10/21 11:21:37;;;;;;;1.00;1.00;;;;;;;;;;4967722;28;20263;-54
2022/10/21 11:24:06;;;;;;;0.80;0.80;;;;;;;;;;4988676;28;20221;-53
2022/10/21 11:26:52;;;;;;;0.80;0.80;;;;;;;;;;4973628;28;20227;-54
2022/10/21 11:29:31;;;;;;;0.80;0.80;;;;;;;;;;4972261;28;20233;-54
2022/10/21 11:32:03;;;;;;;1.10;1.10;;;;;;;;;;4985394;28;20711;-54
2022/10/21 11:34:29;;;;;;;0.70;0.70;;;;;;;;;;4990156;28;20284;-54
2022/10/21 11:37:18;;;;;;;0.90;0.90;;;;;;;;;;4951514;28;20256;-55
2022/10/21 11:39:44;;;;;;;1.00;1.00;;;;;;;;;;4950217;28;20556;-54
2022/10/21 11:42:10;;;;;;;1.20;1.20;;;;;;;;;;4992082;28;20228;-54
2022/10/21 11:44:42;;;;;;;0.90;0.90;;;;;;;;;;4993166;28;21199;-54
2022/10/21 11:47:10;;;;;;;1.00;1.00;;;;;;;;;;4980311;28;20316;-55
2022/10/21 11:49:55;;;;;;;1.20;1.20;;;;;;;;;;4988533;28;20839;-55
2022/10/21 11:52:20;;;;;;;0.90;0.90;;;;;;;;;;4993093;28;20228;-54
2022/10/21 11:54:58;;;;;;;1.30;1.30;;;;;;;;;;4987856;28;20224;-54
2022/10/21 11:57:32;;;;;;;1.13;1.13;;;;;;;;;;4986204;28;20311;-55
2022/10/21 12:00:03;;;;;;;1.27;1.27;;;;;;;;;;4959958;28;20759;-56
2022/10/21 12:03:05;;;;;;;1.30;1.30;;;;;;;;;;4954483;28;20234;-55
2022/10/21 12:05:32;;;;;;;0.75;0.75;;;;;;;;;;4891072;28;20313;-56
2022/10/21 12:08:02;;;;;;;0.85;0.85;;;;;;;;;;4954762;28;20319;-55
2022/10/21 12:10:35;;;;;;;0.70;0.70;;;;;;;;;;4988413;28;20237;-54
2022/10/21 12:13:03;;;;;;;1.20;1.20;;;;;;;;;;4981103;28;20217;-55
2022/10/21 12:15:33;;;;;;;1.40;1.40;;;;;;;;;;4982216;28;20340;-55
2022/10/21 12:18:02;;;;;;;1.25;1.25;;;;;;;;;;4963450;28;20308;-56
2022/10/21 12:20:28;;;;;;;1.20;1.20;;;;;;;;;;4988056;28;20233;-54
2022/10/21 12:22:55;;;;;;;1.25;1.25;;;;;;;;;;4985596;28;20284;-55
2022/10/21 12:25:28;;;;;;;1.30;1.30;;;;;;;;;;4962875;28;20720;-56
2022/10/21 12:28:30;;;;;;;1.20;1.20;;;;;;;;;;4980304;28;20236;-54
2022/10/21 12:30:58;;;;;;;1.40;1.40;;;;;;;;;;4920885;28;20234;-54
2022/10/21 12:33:43;;;;;;;1.30;1.30;;;;;;;;;;4970050;28;20230;-55
2022/10/21 12:36:27;;;;;;;1.40;1.40;;;;;;;;;;4982463;28;20235;-55
2022/10/21 12:38:53;;;;;;;1.58;1.58;;;;;;;;;;4982651;28;20282;-55
2022/10/21 12:41:20;;;;;;;1.40;1.40;;;;;;;;;;4970022;28;20227;-55
2022/10/21 12:43:59;;;;;;;1.40;1.40;;;;;;;;;;4990674;28;20224;-55
2022/10/21 12:46:26;;;;;;;1.27;1.27;;;;;;;;;;4968956;28;20251;-55
2022/10/21 12:48:52;;;;;;;1.30;1.30;;;;;;;;;;4981085;28;20218;-56
2022/10/21 12:51:22;;;;;;;1.20;1.20;;;;;;;;;;4989066;28;20708;-55
2022/10/21 12:53:51;;;;;;;1.30;1.30;;;;;;;;;;4979837;28;21210;-55
2022/10/21 12:56:44;;;;;;;1.50;1.50;;;;;;;;;;4972690;28;20229;-55
2022/10/21 12:59:16;;;;;;;1.30;1.30;;;;;;;;;;4976725;28;20236;-56
2022/10/21 13:01:43;;;;;;;1.40;1.40;;;;;;;;;;4970562;28;20700;-56
2022/10/21 13:04:28;;;;;;;1.30;1.30;;;;;;;;;;4977395;28;20233;-56
2022/10/21 13:06:54;;;;;;;1.40;1.40;;;;;;;;;;4991944;28;20281;-56
2022/10/21 13:09:35;;;;;;;1.40;1.40;;;;;;;;;;4982897;28;20599;-55
2022/10/21 13:12:02;;;;;;;1.40;1.40;;;;;;;;;;4993979;28;20803;-56
2022/10/21 13:14:29;;;;;;;1.65;1.65;;;;;;;;;;4993901;28;20597;-56
2022/10/21 13:17:13;;;;;;;1.40;1.40;;;;;;;;;;4988702;28;20623;-55
2022/10/21 13:19:39;;;;;;;1.40;1.40;;;;;;;;;;4993198;28;20649;-55
2022/10/21 13:22:11;;;;;;;1.30;1.30;;;;;;;;;;4991982;28;20229;-58
2022/10/21 13:24:37;;;;;;;1.40;1.40;;;;;;;;;;4984095;28;20266;-56
2022/10/21 13:27:04;;;;;;;1.40;1.40;;;;;;;;;;4991467;28;20236;-55
2022/10/21 13:29:36;;;;;;;1.40;1.40;;;;;;;;;;4985509;28;20217;-55
2022/10/21 13:32:17;;;;;;;1.48;1.48;;;;;;;;;;4985834;28;20547;-56
2022/10/21 13:35:03;;;;;;;1.50;1.50;;;;;;;;;;4982096;28;20232;-55
2022/10/21 13:37:33;;;;;;;1.50;1.50;;;;;;;;;;4967000;28;20264;-56
2022/10/21 13:40:00;;;;;;;1.30;1.30;;;;;;;;;;4988383;28;20222;-57
2022/10/21 13:42:29;;;;;;;1.40;1.40;;;;;;;;;;4965761;28;20351;-56
2022/10/21 13:44:57;;;;;;;1.30;1.30;;;;;;;;;;5000831;28;20228;-55
2022/10/21 13:47:30;;;;;;;1.30;1.30;;;;;;;;;;4973227;28;20231;-56
2022/10/21 13:50:16;;;;;;;1.55;1.55;;;;;;;;;;4994977;28;20230;-56
2022/10/21 13:52:43;;;;;;;1.40;1.40;;;;;;;;;;4979065;28;20347;-56
2022/10/21 13:55:22;;;;;;;1.30;1.30;;;;;;;;;;4991088;28;20664;-57
2022/10/21 13:57:49;;;;;;;1.20;1.20;;;;;;;;;;4984682;28;20216;-55
2022/10/21 14:00:17;;;;;;;1.30;1.30;;;;;;;;;;4991883;28;20287;-56
2022/10/21 14:02:49;;;;;;;1.35;1.35;;;;;;;;;;4991064;28;20248;-56
2022/10/21 14:05:28;;;;;;;1.30;1.30;;;;;;;;;;4970525;28;20700;-56
2022/10/21 14:07:53;;;;;;;1.50;1.50;;;;;;;;;;4989017;28;20245;-55
2022/10/21 14:10:19;;;;;;;1.30;1.30;;;;;;;;;;4989362;28;20707;-55
2022/10/21 14:12:45;;;;;;;1.20;1.20;;;;;;;;;;4993826;28;20856;-56
2022/10/21 14:15:21;;;;;;;1.37;1.37;;;;;;;;;;4986310;28;21237;-57
2022/10/21 14:17:48;;;;;;;1.33;1.33;;;;;;;;;;4982244;28;20699;-56
2022/10/21 14:20:15;;;;;;;1.50;1.50;;;;;;;;;;4964864;28;20274;-56
2022/10/21 14:22:41;;;;;;;1.30;1.30;;;;;;;;;;4988666;28;20225;-57
2022/10/21 14:25:14;;;;;;;1.40;1.40;;;;;;;;;;4980238;28;20251;-57
2022/10/21 14:27:40;;;;;;;1.40;1.40;;;;;;;;;;4978652;28;20252;-54
2022/10/21 14:30:08;;;;;;;1.40;1.40;;;;;;;;;;4959503;28;20221;-56
2022/10/21 14:32:34;;;;;;;1.23;1.23;;;;;;;;;;4991491;28;20704;-56
2022/10/21 14:35:02;;;;;;;1.00;1.00;;;;;;;;;;4979689;28;20224;-54
2022/10/21 14:37:33;;;;;;;1.20;1.20;;;;;;;;;;4980232;28;20243;-54
2022/10/21 14:40:09;;;;;;;1.50;1.50;;;;;;;;;;4989017;28;20362;-55
2022/10/21 14:42:35;;;;;;;1.40;1.40;;;;;;;;;;4972438;28;20539;-55
2022/10/21 14:45:02;;;;;;;1.40;1.40;;;;;;;;;;4968606;28;20736;-55
2022/10/21 14:47:28;;;;;;;1.50;1.50;;;;;;;;;;4965663;28;20240;-55
2022/10/21 14:49:55;;;;;;;1.40;1.40;;;;;;;;;;4975480;28;21819;-55
2022/10/21 14:52:21;;;;;;;1.30;1.30;;;;;;;;;;4988806;28;20236;-55